createdAt,value
2023-05-19T00:01:00.711Z,99.90
2023-05-19T00:03:31.501Z,99.90
2023-05-19T00:06:04.077Z,99.90
2023-05-19T00:08:34.439Z,99.90
2023-05-19T00:11:05.495Z,99.90
2023-05-19T00:13:34.755Z,99.90
2023-05-19T00:16:03.983Z,99.90
2023-05-19T00:18:32.414Z,99.90
2023-05-19T00:21:01.381Z,99.90
2023-05-19T00:23:31.239Z,99.90
2023-05-19T00:26:01.027Z,99.90
2023-05-19T00:28:31.251Z,99.90
2023-05-19T00:30:59.988Z,99.90
2023-05-19T00:33:28.612Z,99.90
2023-05-19T00:35:57.383Z,99.90
2023-05-19T00:38:25.887Z,99.90
2023-05-19T00:40:54.642Z,99.90
2023-05-19T00:43:23.337Z,99.90
2023-05-19T00:45:53.647Z,99.90
2023-05-19T00:48:22.991Z,99.90
2023-05-19T00:50:52.399Z,99.90
2023-05-19T00:53:21.240Z,99.90
2023-05-19T00:55:50.102Z,99.90
2023-05-19T00:58:19.739Z,99.90
2023-05-19T01:00:48.364Z,99.90
2023-05-19T01:03:20.941Z,99.90
2023-05-19T01:05:49.934Z,99.90
2023-05-19T01:08:18.475Z,99.90
2023-05-19T01:10:48.333Z,99.90
2023-05-19T01:13:17.067Z,99.90
2023-05-19T01:16:07.016Z,99.90
2023-05-19T01:19:02.062Z,99.90
2023-05-19T01:22:13.981Z,99.90
2023-05-19T01:25:10.542Z,99.90
2023-05-19T01:28:04.915Z,99.90
2023-05-19T01:30:38.221Z,99.90
2023-05-19T01:33:09.631Z,99.90
2023-05-19T01:35:40.912Z,99.90
2023-05-19T01:38:11.674Z,99.90
2023-05-19T01:40:41.897Z,99.90
2023-05-19T01:43:14.288Z,99.90
2023-05-19T01:45:45.394Z,99.90
2023-05-19T01:48:15.566Z,99.90
2023-05-19T01:50:45.563Z,99.90
2023-05-19T01:53:14.124Z,99.90
2023-05-19T01:55:46.635Z,99.90
2023-05-19T01:58:20.327Z,99.90
2023-05-19T02:00:55.790Z,99.90
2023-05-19T02:03:38.090Z,99.90
2023-05-19T02:06:20.783Z,99.90
2023-05-19T02:08:58.932Z,99.90
2023-05-19T02:11:39.611Z,99.90
2023-05-19T02:14:16.184Z,99.90
2023-05-19T02:16:49.352Z,99.90
2023-05-19T02:19:25.711Z,99.90
2023-05-19T02:21:54.386Z,99.90
2023-05-19T02:24:23.208Z,99.90
2023-05-19T02:26:51.986Z,99.90
2023-05-19T02:29:21.390Z,99.90
2023-05-19T02:31:51.380Z,99.90
2023-05-19T02:34:21.205Z,99.90
2023-05-19T02:36:51.753Z,99.90
2023-05-19T02:39:20.344Z,99.90
2023-05-19T02:41:48.858Z,99.90
2023-05-19T02:44:17.585Z,99.90
2023-05-19T02:46:46.382Z,99.90
2023-05-19T02:49:16.360Z,99.90
2023-05-19T02:51:45.043Z,99.90
2023-05-19T02:54:13.829Z,99.90
2023-05-19T02:56:43.848Z,99.90
2023-05-19T02:59:12.296Z,99.90
2023-05-19T03:01:40.854Z,99.90
2023-05-19T03:04:13.102Z,99.90
2023-05-19T03:06:45.710Z,99.90
2023-05-19T03:09:15.332Z,99.90
2023-05-19T03:11:44.082Z,99.90
2023-05-19T03:14:14.644Z,99.90
2023-05-19T03:16:43.497Z,99.90
2023-05-19T03:19:12.743Z,99.90
2023-05-19T03:21:43.592Z,99.90
2023-05-19T03:24:12.298Z,99.90
2023-05-19T03:26:40.716Z,99.90
2023-05-19T03:29:09.304Z,99.90
2023-05-19T03:31:39.543Z,99.90
2023-05-19T03:34:08.445Z,99.90
2023-05-19T03:36:40.017Z,99.90
2023-05-19T03:39:10.072Z,99.90
2023-05-19T03:41:38.593Z,99.90
2023-05-19T03:44:07.280Z,99.90
2023-05-19T03:46:35.760Z,99.90
2023-05-19T03:49:04.545Z,99.90
2023-05-19T03:51:34.936Z,99.90
2023-05-19T03:54:03.781Z,99.90
2023-05-19T03:56:34.715Z,99.90
2023-05-19T03:59:06.315Z,99.90
2023-05-19T04:01:35.390Z,99.90
2023-05-19T04:04:03.993Z,99.90
2023-05-19T04:06:32.425Z,99.90
2023-05-19T04:09:00.914Z,99.90
2023-05-19T04:11:29.888Z,99.90
2023-05-19T04:14:00.299Z,99.90
2023-05-19T04:16:28.994Z,99.90
2023-05-19T04:18:58.106Z,99.90
2023-05-19T04:21:26.738Z,99.90
2023-05-19T04:23:55.763Z,99.90
2023-05-19T04:26:25.071Z,99.90
2023-05-19T04:28:54.126Z,99.90
2023-05-19T04:31:24.280Z,99.90
2023-05-19T04:33:53.685Z,99.90
2023-05-19T04:36:22.644Z,99.90
2023-05-19T04:38:54.953Z,99.90
2023-05-19T04:41:23.465Z,99.90
2023-05-19T04:43:51.932Z,99.90
2023-05-19T04:46:24.417Z,99.90
2023-05-19T04:48:55.690Z,99.90
2023-05-19T04:51:30.271Z,99.90
2023-05-19T04:53:59.318Z,99.90
2023-05-19T04:56:29.076Z,99.90
2023-05-19T04:58:57.613Z,99.90
2023-05-19T05:01:26.639Z,99.90
2023-05-19T05:03:59.368Z,99.90
2023-05-19T05:06:28.763Z,99.90
2023-05-19T05:08:58.137Z,99.90
2023-05-19T05:11:27.437Z,99.90
2023-05-19T05:13:58.392Z,99.90
2023-05-19T05:16:28.420Z,99.90
2023-05-19T05:19:00.453Z,99.90
2023-05-19T05:21:30.107Z,99.90
2023-05-19T05:23:59.212Z,99.90
2023-05-19T05:26:34.634Z,99.90
2023-05-19T05:29:05.544Z,99.90
2023-05-19T05:31:34.092Z,99.90
2023-05-19T05:34:04.138Z,99.90
2023-05-19T05:36:35.085Z,99.90
2023-05-19T05:39:04.662Z,99.90
2023-05-19T05:41:35.623Z,99.90
2023-05-19T05:44:05.205Z,99.90
2023-05-19T05:46:34.257Z,99.90
2023-05-19T05:49:05.323Z,99.90
2023-05-19T05:51:37.274Z,99.90
2023-05-19T05:54:08.353Z,99.90
2023-05-19T05:56:37.795Z,99.90
2023-05-19T05:59:06.304Z,99.90
2023-05-19T06:01:36.000Z,99.90
2023-05-19T06:04:06.862Z,99.90
2023-05-19T06:06:36.164Z,99.90
2023-05-19T06:09:05.111Z,99.90
2023-05-19T06:11:33.631Z,99.90
2023-05-19T06:14:04.589Z,99.90
2023-05-19T06:16:33.326Z,99.90
2023-05-19T06:19:02.385Z,99.90
2023-05-19T06:21:32.571Z,99.90
2023-05-19T06:24:01.129Z,99.90
2023-05-19T06:26:29.694Z,99.90
2023-05-19T06:28:58.651Z,99.90
2023-05-19T06:31:27.583Z,99.90
2023-05-19T06:33:56.283Z,99.90
2023-05-19T06:36:25.362Z,99.90
2023-05-19T06:38:55.747Z,99.90
2023-05-19T06:41:24.314Z,99.90
2023-05-19T06:43:54.028Z,99.90
2023-05-19T06:46:23.558Z,99.90
2023-05-19T06:48:52.783Z,99.90
2023-05-19T06:51:22.654Z,99.90
2023-05-19T06:53:51.471Z,99.90
2023-05-19T06:56:23.072Z,99.90
2023-05-19T06:58:54.391Z,99.90
2023-05-19T07:01:26.734Z,99.90
2023-05-19T07:03:56.105Z,99.90
2023-05-19T07:06:27.021Z,99.90
2023-05-19T07:08:55.656Z,99.90
2023-05-19T07:11:26.508Z,99.90
2023-05-19T07:13:55.111Z,99.90
2023-05-19T07:16:23.721Z,99.90
2023-05-19T07:18:53.602Z,99.90
2023-05-19T07:21:22.533Z,99.90
2023-05-19T07:23:51.216Z,99.90
2023-05-19T07:26:19.865Z,99.90
2023-05-19T07:28:50.229Z,99.90
2023-05-19T07:31:19.026Z,99.90
2023-05-19T07:33:47.547Z,99.90
2023-05-19T07:36:17.764Z,99.90
2023-05-19T07:38:47.159Z,99.90
2023-05-19T07:41:16.198Z,99.90
2023-05-19T07:43:47.382Z,99.90
2023-05-19T07:46:19.981Z,99.90
2023-05-19T07:48:49.717Z,99.90
2023-05-19T07:51:19.591Z,99.90
2023-05-19T07:53:48.570Z,99.90
2023-05-19T07:56:17.302Z,99.90
2023-05-19T07:58:49.566Z,99.90
2023-05-19T08:01:21.105Z,99.90
2023-05-19T08:03:49.746Z,99.90
2023-05-19T08:06:18.523Z,99.90
2023-05-19T08:08:47.568Z,99.90
2023-05-19T08:11:16.667Z,99.90
2023-05-19T08:13:47.741Z,99.90
2023-05-19T08:16:17.580Z,99.90
2023-05-19T08:18:48.333Z,99.90
2023-05-19T08:21:17.344Z,99.90
2023-05-19T08:23:49.671Z,99.90
2023-05-19T08:26:18.330Z,99.90
2023-05-19T08:28:47.463Z,99.90
2023-05-19T08:31:19.715Z,99.90
2023-05-19T08:33:52.378Z,99.90
2023-05-19T08:36:22.147Z,99.90
2023-05-19T08:38:50.849Z,99.90
2023-05-19T08:41:19.785Z,99.90
2023-05-19T08:43:48.929Z,99.90
2023-05-19T08:46:20.970Z,99.90
2023-05-19T08:48:55.531Z,99.90
2023-05-19T08:51:35.686Z,99.90
2023-05-19T08:54:14.077Z,99.90
2023-05-19T08:56:45.827Z,99.90
2023-05-19T08:59:16.245Z,99.90
2023-05-19T09:01:49.027Z,99.90
2023-05-19T09:04:20.122Z,99.90
2023-05-19T09:06:50.654Z,99.90
2023-05-19T09:09:20.497Z,99.90
2023-05-19T09:11:49.413Z,99.90
2023-05-19T09:14:18.778Z,99.90
2023-05-19T09:16:51.673Z,99.90
2023-05-19T09:19:23.333Z,99.70
2023-05-19T09:22:01.314Z,99.90
2023-05-19T09:24:31.523Z,99.80
2023-05-19T09:27:01.066Z,99.50
2023-05-19T09:29:30.451Z,99.90
2023-05-19T09:32:04.526Z,99.90
2023-05-19T09:34:44.378Z,99.90
2023-05-19T09:37:15.414Z,99.70
2023-05-19T09:39:52.802Z,98.40
2023-05-19T09:42:28.646Z,99.70
2023-05-19T09:45:02.737Z,99.70
2023-05-19T09:47:37.385Z,99.30
2023-05-19T09:50:14.742Z,99.40
2023-05-19T09:52:46.008Z,98.40
2023-05-19T09:55:17.618Z,98.10
2023-05-19T09:57:57.372Z,97.90
2023-05-19T10:00:37.672Z,97.70
2023-05-19T10:03:10.782Z,98.00
2023-05-19T10:05:43.297Z,96.60
2023-05-19T10:08:19.444Z,96.60
2023-05-19T10:10:49.877Z,97.50
2023-05-19T10:13:21.596Z,96.90
2023-05-19T10:18:27.404Z,97.10
2023-05-19T10:20:59.398Z,98.00
2023-05-19T10:23:28.909Z,97.00
2023-05-19T10:25:59.717Z,96.60
2023-05-19T10:28:37.171Z,97.10
2023-05-19T10:31:10.918Z,96.20
2023-05-19T10:33:55.603Z,97.10
2023-05-19T10:36:46.119Z,96.50
2023-05-19T10:39:20.435Z,96.50
2023-05-19T10:41:59.089Z,96.50
2023-05-19T10:44:42.429Z,95.60
2023-05-19T10:47:14.350Z,95.50
2023-05-19T10:49:44.493Z,96.10
2023-05-19T10:52:35.488Z,95.70
2023-05-19T10:55:05.317Z,96.10
2023-05-19T10:57:34.550Z,96.20
2023-05-19T11:00:11.918Z,95.10
2023-05-19T11:02:42.103Z,95.10
2023-05-19T11:05:17.242Z,94.80
2023-05-19T11:08:02.364Z,95.40
2023-05-19T11:10:31.620Z,96.30
2023-05-19T11:13:01.911Z,94.70
2023-05-19T11:15:31.539Z,94.90
2023-05-19T11:18:03.891Z,95.10
2023-05-19T11:20:35.368Z,95.20
2023-05-19T11:23:12.132Z,95.30
2023-05-19T11:25:48.356Z,94.70
2023-05-19T11:28:21.652Z,94.70
2023-05-19T11:30:52.174Z,95.30
2023-05-19T11:33:27.453Z,92.90
2023-05-19T11:35:59.272Z,93.50
2023-05-19T11:38:30.706Z,92.80
2023-05-19T11:40:59.412Z,93.00
2023-05-19T11:43:28.797Z,93.20
2023-05-19T11:45:57.689Z,93.60
2023-05-19T11:48:27.740Z,93.20
2023-05-19T11:50:57.052Z,94.50
2023-05-19T11:53:26.542Z,92.90
2023-05-19T11:55:57.022Z,92.60
2023-05-19T11:58:28.631Z,92.80
2023-05-19T12:00:57.832Z,93.50
2023-05-19T12:03:28.876Z,92.90
2023-05-19T12:05:58.585Z,91.40
2023-05-19T12:08:28.630Z,90.80
2023-05-19T12:10:59.102Z,91.10
2023-05-19T12:13:28.842Z,92.00
2023-05-19T12:16:02.695Z,91.50
2023-05-19T12:18:33.016Z,91.80
2023-05-19T12:21:02.176Z,91.50
2023-05-19T12:23:32.704Z,90.70
2023-05-19T12:26:06.399Z,91.10
2023-05-19T12:28:35.552Z,91.30
2023-05-19T12:31:05.151Z,91.40
2023-05-19T12:33:36.641Z,91.50
2023-05-19T12:36:06.594Z,92.40
2023-05-19T12:38:37.684Z,91.80
2023-05-19T12:41:10.329Z,91.80
2023-05-19T12:43:39.602Z,91.00
2023-05-19T12:46:16.876Z,90.70
2023-05-19T12:48:47.861Z,91.60
2023-05-19T12:51:20.501Z,90.50
2023-05-19T12:53:51.768Z,91.40
2023-05-19T12:56:22.352Z,91.20
2023-05-19T12:58:56.211Z,91.50
2023-05-19T13:01:25.497Z,91.50
2023-05-19T13:03:54.990Z,91.50
2023-05-19T13:06:23.771Z,91.30
2023-05-19T13:08:52.568Z,90.90
2023-05-19T13:11:22.858Z,90.70
2023-05-19T13:13:52.335Z,90.50
2023-05-19T13:16:21.117Z,90.30
2023-05-19T13:18:51.927Z,90.50
2023-05-19T13:21:23.024Z,91.20
2023-05-19T13:23:52.549Z,90.10
2023-05-19T13:26:25.871Z,90.10
2023-05-19T13:28:55.227Z,90.30
2023-05-19T13:31:23.768Z,89.70
2023-05-19T13:33:52.703Z,89.50
2023-05-19T13:36:21.630Z,89.20
2023-05-19T13:38:50.761Z,87.10
2023-05-19T13:41:25.693Z,87.40
2023-05-19T13:44:01.521Z,87.90
2023-05-19T13:46:43.894Z,88.40
2023-05-19T13:49:13.318Z,90.10
2023-05-19T13:51:45.589Z,87.70
2023-05-19T13:54:14.406Z,86.50
2023-05-19T13:56:46.349Z,86.50
2023-05-19T13:59:16.205Z,88.60
2023-05-19T14:01:47.041Z,86.90
2023-05-19T14:04:18.245Z,87.20
2023-05-19T14:06:47.264Z,87.70
2023-05-19T14:09:18.163Z,87.00
2023-05-19T14:11:49.371Z,87.40
2023-05-19T14:14:19.876Z,87.90
2023-05-19T14:16:48.547Z,85.70
2023-05-19T14:19:17.610Z,86.30
2023-05-19T14:21:47.006Z,86.90
2023-05-19T14:24:16.039Z,86.90
2023-05-19T14:26:47.327Z,87.30
2023-05-19T14:29:17.950Z,85.90
2023-05-19T14:31:46.993Z,86.30
2023-05-19T14:34:18.274Z,86.10
2023-05-19T14:36:47.029Z,84.30
2023-05-19T14:39:16.170Z,85.30
2023-05-19T14:41:46.316Z,86.10
2023-05-19T14:44:16.224Z,85.40
2023-05-19T14:46:45.263Z,85.10
2023-05-19T14:49:15.047Z,86.40
2023-05-19T14:51:44.631Z,88.00
2023-05-19T14:54:15.361Z,87.00
2023-05-19T14:56:44.118Z,86.90
2023-05-19T14:59:12.779Z,86.10
2023-05-19T15:01:44.327Z,85.60
2023-05-19T15:04:13.566Z,87.70
2023-05-19T15:06:42.578Z,87.60
2023-05-19T15:09:14.605Z,85.80
2023-05-19T15:11:43.264Z,86.50
2023-05-19T15:14:12.149Z,84.60
2023-05-19T15:16:44.437Z,84.00
2023-05-19T15:19:13.082Z,84.30
2023-05-19T15:21:44.523Z,84.20
2023-05-19T15:24:13.258Z,85.00
2023-05-19T15:26:42.263Z,84.30
2023-05-19T15:29:11.031Z,85.80
2023-05-19T15:31:40.314Z,86.70
2023-05-19T15:34:10.573Z,84.40
2023-05-19T15:36:39.362Z,84.80
2023-05-19T15:39:08.141Z,85.50
2023-05-19T15:41:37.576Z,85.10
2023-05-19T15:44:12.671Z,83.70
2023-05-19T15:46:41.923Z,82.20
2023-05-19T15:49:13.332Z,82.90
2023-05-19T15:51:42.044Z,82.60
2023-05-19T15:54:11.106Z,82.50
2023-05-19T15:56:41.584Z,83.30
2023-05-19T15:59:10.341Z,84.00
2023-05-19T16:01:41.205Z,83.70
2023-05-19T16:04:10.254Z,82.80
2023-05-19T16:06:40.809Z,84.70
2023-05-19T16:09:09.658Z,83.30
2023-05-19T16:11:38.393Z,82.60
2023-05-19T16:14:07.257Z,82.60
2023-05-19T16:16:37.936Z,82.40
2023-05-19T16:19:06.990Z,82.70
2023-05-19T16:21:36.221Z,82.30
2023-05-19T16:24:07.160Z,84.20
2023-05-19T16:26:36.244Z,83.30
2023-05-19T16:29:05.468Z,82.20
2023-05-19T16:31:34.527Z,80.30
2023-05-19T16:34:03.257Z,79.80
2023-05-19T16:36:34.963Z,80.20
2023-05-19T16:39:05.322Z,79.90
2023-05-19T16:41:38.311Z,79.60
2023-05-19T16:44:07.789Z,81.60
2023-05-19T16:46:36.593Z,81.10
2023-05-19T16:49:09.354Z,80.60
2023-05-19T16:51:40.628Z,81.00
2023-05-19T16:54:10.128Z,80.50
2023-05-19T16:56:42.801Z,81.10
2023-05-19T16:59:12.952Z,80.10
2023-05-19T17:01:44.699Z,79.50
2023-05-19T17:04:15.602Z,79.90
2023-05-19T17:06:44.503Z,80.80
2023-05-19T17:09:13.434Z,79.50
2023-05-19T17:11:43.978Z,79.40
2023-05-19T17:14:13.716Z,79.80
2023-05-19T17:16:43.728Z,80.50
2023-05-19T17:19:17.228Z,80.20
2023-05-19T17:21:46.660Z,80.90
2023-05-19T17:24:15.251Z,81.20
2023-05-19T17:26:45.390Z,81.10
2023-05-19T17:29:17.495Z,81.40
2023-05-19T17:31:46.796Z,81.30
2023-05-19T17:34:15.427Z,80.30
2023-05-19T17:36:45.314Z,80.50
2023-05-19T17:39:16.124Z,80.70
2023-05-19T17:48:19.167Z,80.80
2023-05-19T17:50:48.861Z,81.00
2023-05-19T17:53:18.194Z,80.60
2023-05-19T17:55:52.419Z,80.80
2023-05-19T17:58:21.699Z,81.00
2023-05-19T18:00:56.056Z,81.20
2023-05-19T18:03:27.746Z,82.50
2023-05-19T18:05:56.890Z,81.60
2023-05-19T18:08:26.106Z,81.40
2023-05-19T18:10:57.232Z,81.60
2023-05-19T18:13:26.248Z,81.70
2023-05-19T18:15:54.940Z,82.00
2023-05-19T18:18:24.780Z,81.70
2023-05-19T18:20:56.592Z,81.90
2023-05-19T18:23:25.286Z,81.80
2023-05-19T18:25:54.435Z,82.00
2023-05-19T18:28:23.534Z,82.30
2023-05-19T18:31:00.889Z,83.20
2023-05-19T18:33:32.614Z,82.30
2023-05-19T18:36:07.481Z,82.90
2023-05-19T18:38:37.819Z,83.10
2023-05-19T18:41:09.577Z,83.50
2023-05-19T18:43:40.587Z,83.80
2023-05-19T18:46:09.957Z,83.90
2023-05-19T18:48:39.514Z,84.20
2023-05-19T18:51:09.766Z,84.30
2023-05-19T18:53:39.827Z,84.40
2023-05-19T18:56:13.465Z,85.20
2023-05-19T18:58:42.134Z,85.20
2023-05-19T19:01:16.514Z,85.60
2023-05-19T19:03:46.960Z,86.10
2023-05-19T19:06:18.521Z,87.20
2023-05-19T19:08:47.768Z,87.00
2023-05-19T19:11:20.791Z,88.40
2023-05-19T19:13:51.532Z,88.50
2023-05-19T19:16:21.091Z,88.80
2023-05-19T19:18:50.004Z,88.70
2023-05-19T19:21:23.027Z,89.40
2023-05-19T19:23:52.200Z,89.30
2023-05-19T19:26:21.127Z,90.00
2023-05-19T19:28:52.186Z,89.40
2023-05-19T19:31:22.344Z,90.00
2023-05-19T19:33:51.211Z,90.20
2023-05-19T19:36:21.337Z,90.30
2023-05-19T19:38:50.895Z,90.60
2023-05-19T19:41:20.305Z,90.70
2023-05-19T19:43:49.203Z,90.90
2023-05-19T19:46:19.207Z,91.00
2023-05-19T19:48:49.341Z,91.10
2023-05-19T19:51:18.020Z,91.20
2023-05-19T19:53:49.796Z,91.40
2023-05-19T19:56:19.296Z,91.80
2023-05-19T19:58:51.656Z,91.80
2023-05-19T20:01:28.262Z,92.50
2023-05-19T20:03:58.391Z,92.70
2023-05-19T20:06:27.101Z,92.80
2023-05-19T20:09:03.660Z,93.50
2023-05-19T20:11:32.499Z,93.60
2023-05-19T20:14:01.770Z,94.50
2023-05-19T20:16:35.091Z,95.00
2023-05-19T20:19:09.036Z,96.10
2023-05-19T20:21:38.404Z,96.60
2023-05-19T20:24:10.540Z,97.10
2023-05-19T20:26:39.697Z,97.30
2023-05-19T20:29:14.287Z,97.80
2023-05-19T20:31:49.581Z,98.00
2023-05-19T20:34:20.213Z,98.70
2023-05-19T20:36:49.461Z,99.80
2023-05-19T20:39:25.204Z,99.90
2023-05-19T20:41:54.002Z,99.90
2023-05-19T20:44:22.806Z,99.90
2023-05-19T20:46:52.610Z,99.90
2023-05-19T20:49:24.496Z,99.90
2023-05-19T20:51:53.091Z,99.90
2023-05-19T20:54:23.248Z,99.90
2023-05-19T20:56:53.412Z,99.90
2023-05-19T20:59:22.281Z,99.90
2023-05-19T21:02:05.644Z,99.90
2023-05-19T21:04:34.338Z,99.90
2023-05-19T21:07:06.901Z,99.90
2023-05-19T21:09:37.671Z,99.90
2023-05-19T21:12:18.990Z,99.90
2023-05-19T21:14:48.647Z,99.90
2023-05-19T21:17:19.537Z,99.90
2023-05-19T21:19:53.605Z,99.90
2023-05-19T21:22:22.548Z,99.90
2023-05-19T21:24:52.628Z,99.90
2023-05-19T21:27:21.461Z,99.90
2023-05-19T21:29:54.184Z,99.90
2023-05-19T21:32:23.027Z,99.90
2023-05-19T21:34:52.170Z,99.90
2023-05-19T21:37:21.924Z,99.90
2023-05-19T21:39:52.053Z,99.90
2023-05-19T21:42:20.574Z,99.90
2023-05-19T21:44:49.557Z,99.90
2023-05-19T21:47:18.205Z,99.90
2023-05-19T21:49:47.059Z,99.90
2023-05-19T21:52:17.334Z,99.90
2023-05-19T21:54:46.334Z,99.90
2023-05-19T21:57:16.516Z,99.90
2023-05-19T21:59:46.168Z,99.90
2023-05-19T22:02:16.255Z,99.90
2023-05-19T22:04:45.059Z,99.90
2023-05-19T22:07:13.670Z,99.90
2023-05-19T22:09:42.309Z,99.90
2023-05-19T22:12:11.026Z,99.90
2023-05-19T22:14:41.397Z,99.90
2023-05-19T22:17:19.163Z,99.90
2023-05-19T22:19:49.061Z,99.90
2023-05-19T22:22:21.643Z,99.90
2023-05-19T22:24:50.672Z,99.90
2023-05-19T22:27:22.912Z,99.90
2023-05-19T22:29:52.944Z,99.90
2023-05-19T22:32:21.787Z,99.90
2023-05-19T22:34:50.321Z,99.90
2023-05-19T22:37:19.155Z,99.90
2023-05-19T22:39:47.666Z,99.90
2023-05-19T22:42:16.891Z,99.90
2023-05-19T22:44:47.112Z,99.90
2023-05-19T22:47:17.378Z,99.90
2023-05-19T22:49:46.093Z,99.90
2023-05-19T22:52:14.980Z,99.90
2023-05-19T22:54:43.533Z,99.90
2023-05-19T22:57:12.658Z,99.90
2023-05-19T22:59:42.109Z,99.90
2023-05-19T23:02:10.741Z,99.90
2023-05-19T23:04:41.662Z,99.90
2023-05-19T23:07:10.509Z,99.90
2023-05-19T23:09:39.398Z,99.90
2023-05-19T23:12:12.403Z,99.90
2023-05-19T23:14:40.931Z,99.90
2023-05-19T23:17:10.092Z,99.90
2023-05-19T23:19:39.148Z,99.90
2023-05-19T23:22:11.104Z,99.90
2023-05-19T23:24:39.894Z,99.90
2023-05-19T23:27:10.996Z,99.90
2023-05-19T23:29:39.612Z,99.90
2023-05-19T23:32:08.853Z,99.90
2023-05-19T23:34:37.419Z,99.90
2023-05-19T23:37:06.513Z,99.90
2023-05-19T23:39:38.468Z,99.90
2023-05-19T23:42:07.365Z,99.90
2023-05-19T23:44:37.235Z,99.90
2023-05-19T23:47:06.303Z,99.90
2023-05-19T23:49:35.087Z,99.90
2023-05-19T23:52:03.590Z,99.90
2023-05-19T23:54:32.580Z,99.90
2023-05-19T23:57:03.296Z,99.90
2023-05-19T23:59:32.201Z,99.90
